Time;durP1;ratioP1;P1;durP2;ratioP2;P2;SDS_P1;SDS_P2;PMS_P1;PMS_P2;Temp;Humidity;BMP_temperature;BMP_pressure;BME280_temperature;BME280_humidity;BME280_pressure;Samples;Min_cycle;Max_cycle;Signal;HPM_P1;HPM_P2
2022/05/24 00:01:38;;;;;;;1.45;0.50;;;11.20;99.90;;;;;;4898353;29;20107;-82
2022/05/24 00:04:03;;;;;;;0.82;0.80;;;11.10;99.90;;;;;;4898444;29;20042;-81
2022/05/24 00:06:31;;;;;;;0.98;0.88;;;11.00;99.90;;;;;;4900259;29;20035;-81
2022/05/24 00:08:58;;;;;;;3.40;0.70;;;11.00;99.90;;;;;;4898408;29;20509;-81
2022/05/24 00:11:24;;;;;;;1.55;0.77;;;10.90;99.90;;;;;;4898427;29;20024;-81
2022/05/24 00:13:50;;;;;;;0.82;0.70;;;10.80;99.90;;;;;;4897988;29;20031;-79
2022/05/24 00:16:16;;;;;;;0.73;0.55;;;10.80;99.90;;;;;;4898199;29;20035;-79
2022/05/24 00:18:42;;;;;;;0.50;0.50;;;10.80;99.90;;;;;;4881707;29;20025;-79
2022/05/24 00:21:07;;;;;;;0.65;0.63;;;10.70;99.90;;;;;;4897805;29;20033;-79
2022/05/24 00:23:34;;;;;;;0.50;0.50;;;10.60;99.90;;;;;;4898084;29;20100;-79
2022/05/24 00:26:07;;;;;;;0.43;0.40;;;10.60;99.90;;;;;;4898193;29;20024;-79
2022/05/24 00:28:35;;;;;;;0.68;0.50;;;10.50;99.90;;;;;;4898504;29;20060;-79
2022/05/24 00:31:02;;;;;;;0.63;0.45;;;10.50;99.90;;;;;;4898220;29;20103;-79
2022/05/24 00:33:28;;;;;;;0.82;0.60;;;10.50;99.90;;;;;;4897902;29;20036;-81
2022/05/24 00:35:55;;;;;;;1.92;0.68;;;10.50;99.90;;;;;;4881144;29;20043;-81
2022/05/24 00:38:28;;;;;;;0.40;0.40;;;10.50;99.90;;;;;;4899123;29;20392;-81
2022/05/24 00:41:25;;;;;;;0.50;0.47;;;10.50;99.90;;;;;;4897660;29;20390;-81
2022/05/24 00:44:07;;;;;;;2.85;0.60;;;10.50;99.90;;;;;;4883158;29;20085;-81
2022/05/24 00:46:42;;;;;;;1.10;0.30;;;10.50;99.90;;;;;;4897559;29;20025;-81
2022/05/24 00:49:14;;;;;;;1.20;0.32;;;10.60;99.90;;;;;;4897366;29;20095;-82
2022/05/24 00:51:47;;;;;;;0.40;0.40;;;10.60;99.90;;;;;;4901882;23;20009;-75
2022/05/24 00:54:13;;;;;;;2.05;0.40;;;10.60;99.90;;;;;;4914459;29;20511;-75
2022/05/24 00:57:08;;;;;;;0.30;0.30;;;10.60;99.90;;;;;;4914804;29;20024;-75
2022/05/24 00:59:42;;;;;;;0.40;0.30;;;10.50;99.90;;;;;;4889227;29;20438;-75
2022/05/24 01:02:08;;;;;;;0.40;0.40;;;10.40;99.90;;;;;;4912798;29;20048;-75
2022/05/24 01:04:34;;;;;;;0.30;0.30;;;10.30;99.90;;;;;;4896812;29;20021;-75
2022/05/24 01:07:00;;;;;;;0.65;0.52;;;10.20;99.90;;;;;;4894359;29;20053;-75
2022/05/24 01:09:34;;;;;;;2.83;0.40;;;10.10;99.90;;;;;;4896950;29;20059;-75
2022/05/24 01:12:08;;;;;;;0.32;0.32;;;10.10;99.90;;;;;;4896904;29;20137;-75
2022/05/24 01:14:35;;;;;;;0.55;0.40;;;10.00;99.90;;;;;;4886741;29;20037;-76
2022/05/24 01:17:02;;;;;;;0.82;0.38;;;9.90;99.90;;;;;;4890532;29;20028;-76
2022/05/24 01:19:35;;;;;;;0.22;0.22;;;9.90;99.90;;;;;;4896690;29;20473;-76
2022/05/24 01:22:14;;;;;;;0.30;0.30;;;9.80;99.90;;;;;;4892746;29;20040;-75
2022/05/24 01:25:06;;;;;;;0.32;0.32;;;9.70;99.90;;;;;;4896906;29;20031;-75
2022/05/24 01:27:32;;;;;;;0.68;0.40;;;9.60;99.90;;;;;;4893579;29;20029;-75
2022/05/24 01:29:58;;;;;;;0.40;0.40;;;9.40;99.90;;;;;;4897071;29;20091;-75
2022/05/24 01:37:53;;;;;;;0.40;0.40;;;9.40;99.90;;;;;;4894783;29;20354;-75
2022/05/24 01:40:19;;;;;;;0.38;0.30;;;9.40;99.90;;;;;;4896551;29;20560;-75
2022/05/24 01:42:45;;;;;;;0.47;0.47;;;9.40;99.90;;;;;;4896470;29;20025;-76
2022/05/24 01:45:36;;;;;;;2.38;0.40;;;9.50;99.90;;;;;;4896838;29;20035;-75
2022/05/24 01:48:10;;;;;;;0.75;0.75;;;9.50;99.90;;;;;;4869970;29;20080;-75
2022/05/24 01:50:38;;;;;;;0.22;0.22;;;9.50;99.90;;;;;;4876156;29;20033;-75
2022/05/24 01:53:13;;;;;;;0.38;0.38;;;9.50;99.90;;;;;;4900887;23;20067;-81
2022/05/24 01:55:45;;;;;;;0.55;0.50;;;9.50;99.90;;;;;;4896821;29;20045;-82
2022/05/24 01:58:15;;;;;;;3.10;0.30;;;9.50;99.90;;;;;;4896642;29;20052;-81
2022/05/24 02:00:46;;;;;;;0.40;0.40;;;9.50;99.90;;;;;;4896854;29;20430;-81
2022/05/24 02:03:12;;;;;;;0.25;0.25;;;9.60;99.90;;;;;;4909923;29;20099;-81
2022/05/24 02:05:40;;;;;;;0.30;0.30;;;9.60;99.90;;;;;;4914778;29;20156;-81
2022/05/24 02:08:09;;;;;;;0.30;0.30;;;9.60;99.90;;;;;;4914104;29;20072;-81
2022/05/24 02:10:41;;;;;;;0.28;0.22;;;9.60;99.90;;;;;;4914419;29;20027;-81
2022/05/24 02:13:08;;;;;;;0.30;0.30;;;9.60;99.90;;;;;;4912505;29;20485;-82
2022/05/24 02:15:37;;;;;;;0.47;0.28;;;9.60;99.90;;;;;;4913680;29;20039;-81
2022/05/24 02:18:10;;;;;;;0.20;0.20;;;9.60;99.90;;;;;;4897403;29;20031;-81
2022/05/24 02:20:39;;;;;;;0.25;0.22;;;9.60;99.90;;;;;;4897328;29;20032;-81
2022/05/24 02:23:06;;;;;;;0.20;0.20;;;9.60;99.90;;;;;;4896460;29;20029;-81
2022/05/24 02:25:40;;;;;;;0.30;0.30;;;9.60;99.90;;;;;;4914325;29;20021;-81
2022/05/24 02:28:10;;;;;;;0.30;0.30;;;9.70;99.90;;;;;;4897245;29;20047;-81
2022/05/24 02:30:42;;;;;;;0.40;0.40;;;9.60;99.90;;;;;;4914360;29;20024;-81
2022/05/24 02:33:07;;;;;;;;;;;9.70;99.90;;;;;;4914138;29;20082;-81
2022/05/24 02:35:33;;;;;;;0.60;0.40;;;9.60;99.90;;;;;;4913829;29;19914;-81
2022/05/24 02:37:59;;;;;;;0.85;0.30;;;9.70;99.90;;;;;;4913511;29;20017;-81
2022/05/24 02:43:09;;;;;;;0.70;0.45;;;9.80;99.90;;;;;;4914124;29;20051;-81
2022/05/24 02:45:35;;;;;;;0.30;0.30;;;9.80;99.90;;;;;;4914385;29;20462;-81
2022/05/24 02:48:00;;;;;;;0.60;0.30;;;9.70;99.90;;;;;;4914059;29;20464;-81
2022/05/24 02:50:26;;;;;;;0.38;0.38;;;9.80;99.90;;;;;;4913889;29;20430;-81
2022/05/24 02:52:52;;;;;;;1.48;0.30;;;9.80;99.90;;;;;;4914930;23;20071;-75
2022/05/24 02:55:18;;;;;;;0.40;0.40;;;9.90;99.90;;;;;;4896165;29;20447;-75
2022/05/24 02:57:44;;;;;;;0.20;0.20;;;9.90;99.90;;;;;;4896208;29;20131;-76
2022/05/24 03:00:18;;;;;;;0.40;0.40;;;9.90;99.90;;;;;;4879111;29;20073;-75
2022/05/24 03:02:44;;;;;;;0.55;0.40;;;9.90;99.90;;;;;;4888804;29;20131;-75
2022/05/24 03:05:12;;;;;;;0.63;0.50;;;9.80;99.90;;;;;;4914026;29;20116;-76
2022/05/24 03:10:23;;;;;;;0.55;0.50;;;9.70;99.90;;;;;;4909267;29;20501;-75
2022/05/24 03:15:35;;;;;;;0.60;0.60;;;9.60;99.90;;;;;;4910615;29;20091;-75
2022/05/24 03:18:01;;;;;;;1.52;0.80;;;9.50;99.90;;;;;;4916811;29;20022;-75
2022/05/24 03:20:27;;;;;;;0.45;0.40;;;9.50;99.90;;;;;;4917165;29;20120;-75
2022/05/24 03:22:53;;;;;;;1.65;0.35;;;9.50;99.90;;;;;;4916860;29;20481;-75
2022/05/24 03:25:18;;;;;;;2.05;0.40;;;9.50;99.90;;;;;;4916935;29;20038;-75
2022/05/24 03:27:46;;;;;;;0.47;0.40;;;9.40;99.90;;;;;;4917050;29;20088;-75
2022/05/24 03:30:14;;;;;;;0.70;0.50;;;9.40;99.90;;;;;;4917169;29;20028;-75
2022/05/24 03:32:39;;;;;;;0.30;0.30;;;9.40;99.90;;;;;;4916629;29;20020;-75
2022/05/24 03:35:07;;;;;;;1.95;0.47;;;9.40;99.90;;;;;;4916161;29;20058;-75
2022/05/24 03:37:33;;;;;;;0.22;0.22;;;9.30;99.90;;;;;;4899893;29;20024;-75
2022/05/24 03:39:58;;;;;;;0.63;0.60;;;9.30;99.90;;;;;;4899801;29;20126;-75
2022/05/24 03:42:24;;;;;;;2.40;0.40;;;9.20;99.90;;;;;;4916982;29;20469;-75
2022/05/24 03:44:50;;;;;;;0.28;0.28;;;9.10;99.90;;;;;;4917316;29;20103;-75
2022/05/24 03:47:16;;;;;;;0.63;0.50;;;9.00;99.90;;;;;;4916834;29;20027;-75
2022/05/24 03:49:42;;;;;;;0.43;0.40;;;8.90;99.90;;;;;;4916608;29;20020;-76
2022/05/24 03:52:08;;;;;;;0.57;0.50;;;8.80;99.90;;;;;;4931342;23;20035;-81
2022/05/24 03:54:33;;;;;;;3.25;0.50;;;8.60;99.90;;;;;;4934218;29;20374;-81
2022/05/24 04:00:03;;;;;;;0.40;0.40;;;8.50;99.90;;;;;;4876684;29;20456;-82
2022/05/24 04:02:28;;;;;;;1.60;0.40;;;8.40;99.90;;;;;;4916110;29;20024;-81
2022/05/24 04:04:54;;;;;;;0.85;0.50;;;8.40;99.90;;;;;;4916888;29;20035;-81
2022/05/24 04:07:20;;;;;;;0.40;0.40;;;8.40;99.90;;;;;;4912501;29;20020;-81
2022/05/24 04:09:45;;;;;;;1.08;0.68;;;8.40;99.90;;;;;;4917149;29;20024;-81
2022/05/24 04:12:11;;;;;;;0.40;0.40;;;8.40;99.90;;;;;;4917149;29;20024;-82
2022/05/24 04:14:37;;;;;;;0.50;0.50;;;8.50;99.90;;;;;;4916817;29;20036;-82
2022/05/24 04:17:03;;;;;;;0.52;0.52;;;8.60;99.90;;;;;;4917053;29;20024;-81
2022/05/24 04:19:28;;;;;;;0.82;0.70;;;8.70;99.90;;;;;;4916757;29;20024;-81
2022/05/24 04:21:54;;;;;;;0.65;0.55;;;8.70;99.90;;;;;;4899798;29;20039;-81
2022/05/24 04:24:20;;;;;;;1.38;0.80;;;8.80;99.90;;;;;;4916725;29;20750;-81
2022/05/24 04:26:47;;;;;;;0.73;0.63;;;8.70;99.90;;;;;;4916674;29;20034;-81
2022/05/24 04:29:12;;;;;;;0.60;0.60;;;8.70;99.90;;;;;;4909803;29;20096;-82
2022/05/24 04:31:39;;;;;;;0.68;0.68;;;8.70;99.90;;;;;;4916617;29;20114;-81
2022/05/24 04:34:05;;;;;;;1.23;1.13;;;8.70;99.90;;;;;;4916286;29;20025;-79
2022/05/24 04:36:31;;;;;;;2.45;0.70;;;8.70;99.90;;;;;;4914670;29;20068;-81
2022/05/24 04:38:58;;;;;;;2.42;0.75;;;8.70;99.90;;;;;;4916399;29;20050;-81
2022/05/24 04:44:08;;;;;;;0.82;0.82;;;8.70;99.90;;;;;;4916494;29;20043;-81
2022/05/24 04:49:21;;;;;;;1.10;0.60;;;8.60;99.90;;;;;;4911070;29;20063;-81
2022/05/24 04:51:47;;;;;;;1.10;0.70;;;8.60;99.90;;;;;;4921048;23;20032;-76
2022/05/24 04:54:13;;;;;;;0.63;0.63;;;8.60;99.90;;;;;;4910661;29;20063;-75
2022/05/24 04:56:38;;;;;;;1.58;0.73;;;8.60;99.90;;;;;;4904806;29;20024;-75
2022/05/24 04:59:04;;;;;;;0.70;0.70;;;8.60;99.90;;;;;;4915491;29;20044;-75
2022/05/24 05:01:30;;;;;;;1.23;0.80;;;8.70;99.90;;;;;;4915332;29;20380;-75
2022/05/24 05:03:56;;;;;;;1.13;0.73;;;8.70;99.90;;;;;;4902337;29;20028;-75
2022/05/24 05:06:22;;;;;;;0.70;0.70;;;8.60;99.90;;;;;;4891546;29;20033;-75
2022/05/24 05:08:47;;;;;;;0.77;0.77;;;8.60;99.90;;;;;;4893781;29;20096;-75
2022/05/24 05:11:13;;;;;;;0.75;0.75;;;8.60;99.90;;;;;;4896885;29;20033;-75
2022/05/24 05:13:39;;;;;;;0.70;0.70;;;8.60;99.90;;;;;;4897099;29;20029;-75
2022/05/24 05:16:05;;;;;;;0.82;0.77;;;8.70;99.90;;;;;;4896863;29;20048;-75
2022/05/24 05:18:31;;;;;;;1.10;0.65;;;8.70;99.90;;;;;;4897070;29;20092;-75
2022/05/24 05:20:58;;;;;;;1.27;1.17;;;8.80;99.90;;;;;;4896710;29;20370;-75
2022/05/24 05:23:24;;;;;;;0.50;0.50;;;8.80;99.90;;;;;;4899225;29;20028;-75
2022/05/24 05:25:49;;;;;;;0.80;0.77;;;8.90;99.90;;;;;;4879506;29;20389;-75
2022/05/24 05:28:17;;;;;;;1.63;1.02;;;9.00;99.90;;;;;;4896385;29;20028;-75
2022/05/24 05:33:27;;;;;;;1.45;0.90;;;9.20;99.90;;;;;;4896997;29;20092;-75
2022/05/24 05:35:53;;;;;;;0.93;0.85;;;9.30;99.90;;;;;;4896319;29;20032;-75
2022/05/24 05:38:19;;;;;;;2.83;1.25;;;9.40;99.90;;;;;;4892345;29;20024;-75
2022/05/24 05:40:45;;;;;;;1.50;1.33;;;9.50;99.90;;;;;;4879757;29;20104;-75
2022/05/24 05:43:11;;;;;;;0.93;0.88;;;9.60;99.90;;;;;;4879693;29;20427;-75
2022/05/24 05:45:37;;;;;;;1.52;1.13;;;9.60;99.90;;;;;;4896650;29;20043;-75
2022/05/24 05:48:03;;;;;;;3.17;1.00;;;9.70;99.90;;;;;;4879523;29;20037;-75
2022/05/24 05:50:29;;;;;;;2.58;1.10;;;9.80;99.90;;;;;;4896270;29;20070;-76
2022/05/24 05:52:54;;;;;;;2.40;1.20;;;10.00;99.90;;;;;;4920328;23;20068;-81
2022/05/24 05:55:20;;;;;;;2.75;1.50;;;10.20;99.90;;;;;;4896336;29;20734;-81
2022/05/24 05:57:47;;;;;;;1.27;1.08;;;10.50;99.90;;;;;;4896719;29;20025;-81
2022/05/24 06:00:13;;;;;;;2.30;0.73;;;10.90;99.90;;;;;;4896444;29;20032;-81
2022/05/24 06:02:39;;;;;;;1.90;0.70;;;11.30;99.90;;;;;;4904143;29;20116;-81
2022/05/24 06:05:06;;;;;;;2.65;0.93;;;11.60;99.90;;;;;;4914318;29;20119;-79
2022/05/24 06:07:32;;;;;;;0.98;0.80;;;11.90;99.90;;;;;;4913827;29;20471;-79
2022/05/24 06:09:58;;;;;;;1.10;0.73;;;12.20;99.90;;;;;;4914304;29;20032;-79
2022/05/24 06:12:25;;;;;;;2.20;0.80;;;12.60;99.90;;;;;;4913944;29;20107;-78
2022/05/24 06:14:50;;;;;;;3.60;0.85;;;12.90;99.90;;;;;;4914302;29;20047;-78
2022/05/24 06:17:16;;;;;;;5.03;0.80;;;13.00;99.90;;;;;;4914167;29;20021;-79
2022/05/24 06:19:44;;;;;;;0.88;0.80;;;12.70;99.90;;;;;;4913212;29;20426;-79
2022/05/24 06:22:09;;;;;;;0.93;0.80;;;12.70;99.90;;;;;;4913249;29;20044;-81
2022/05/24 06:24:35;;;;;;;1.35;0.77;;;12.60;99.90;;;;;;4896946;29;20020;-81
2022/05/24 06:27:02;;;;;;;1.85;0.90;;;12.40;99.90;;;;;;4914184;29;20441;-81
2022/05/24 06:29:30;;;;;;;0.82;0.60;;;12.40;99.90;;;;;;4914255;29;20141;-82
2022/05/24 06:31:56;;;;;;;0.60;0.60;;;12.60;99.90;;;;;;4914153;29;20024;-81
2022/05/24 06:34:22;;;;;;;1.35;0.70;;;12.80;99.90;;;;;;4913886;29;20047;-81
2022/05/24 06:36:47;;;;;;;0.43;0.30;;;12.90;99.90;;;;;;4913852;29;20040;-81
2022/05/24 06:39:13;;;;;;;0.70;0.55;;;12.90;99.90;;;;;;4914055;29;20484;-79
2022/05/24 06:41:39;;;;;;;0.93;0.68;;;12.80;99.90;;;;;;4897111;29;20050;-80
2022/05/24 06:44:05;;;;;;;0.77;0.77;;;12.40;99.90;;;;;;4914596;29;20024;-79
2022/05/24 06:46:31;;;;;;;0.43;0.40;;;12.20;99.90;;;;;;4913407;29;20036;-79
2022/05/24 06:48:57;;;;;;;1.10;0.93;;;12.20;99.90;;;;;;4914896;29;20032;-79
2022/05/24 06:51:23;;;;;;;1.90;1.42;;;12.20;99.90;;;;;;4916982;29;20036;-80
2022/05/24 06:53:50;;;;;;;2.30;1.17;;;12.50;99.90;;;;;;4916822;29;20042;-79
2022/05/24 06:56:16;;;;;;;0.80;0.80;;;12.70;99.90;;;;;;4916414;29;20182;-79
2022/05/24 06:58:42;;;;;;;1.23;1.13;;;12.80;99.90;;;;;;4917743;29;20043;-83
2022/05/24 07:03:55;;;;;;;2.65;0.82;;;13.40;99.90;;;;;;4917544;29;20056;-82
2022/05/24 07:06:21;;;;;;;0.98;0.98;;;13.70;99.90;;;;;;4916240;29;20028;-80
2022/05/24 07:08:48;;;;;;;1.15;1.05;;;13.90;99.90;;;;;;4898915;29;20039;-80
2022/05/24 07:11:15;;;;;;;1.45;0.88;;;14.00;99.90;;;;;;4916410;29;20039;-81
2022/05/24 07:13:41;;;;;;;1.25;0.90;;;14.30;99.90;;;;;;4916824;29;20020;-79
2022/05/24 07:16:10;;;;;;;1.60;1.00;;;14.40;99.90;;;;;;4916791;29;20103;-81
2022/05/24 07:18:37;;;;;;;1.33;0.82;;;14.60;99.90;;;;;;4917526;29;20389;-81
2022/05/24 07:21:04;;;;;;;1.17;0.95;;;14.70;99.90;;;;;;4917265;29;20040;-78
2022/05/24 07:23:31;;;;;;;0.75;0.70;;;14.80;99.90;;;;;;4930658;23;20033;-76
2022/05/24 07:26:11;;;;;;;2.10;0.98;;;14.80;99.90;;;;;;4900967;29;20641;-76
2022/05/24 07:28:37;;;;;;;0.95;0.95;;;14.70;99.90;;;;;;4903091;29;20106;-75
2022/05/24 07:31:03;;;;;;;0.90;0.90;;;14.70;99.90;;;;;;4905168;29;20055;-76
2022/05/24 07:33:29;;;;;;;1.00;0.85;;;14.60;99.90;;;;;;4907679;29;20025;-75
2022/05/24 07:35:55;;;;;;;1.00;0.90;;;14.70;99.90;;;;;;4906172;29;20101;-76
2022/05/24 07:38:20;;;;;;;1.25;0.88;;;14.70;99.90;;;;;;4910014;29;20032;-76
2022/05/24 07:46:15;;;;;;;0.82;0.82;;;14.70;99.90;;;;;;4916668;29;20071;-76
2022/05/24 07:48:41;;;;;;;1.17;0.98;;;14.70;99.90;;;;;;4917112;29;20032;-76
2022/05/24 07:51:07;;;;;;;0.88;0.82;;;14.60;99.90;;;;;;4916989;29;20389;-76
2022/05/24 07:53:33;;;;;;;1.77;0.93;;;14.60;99.90;;;;;;4899221;29;20052;-76
2022/05/24 07:56:00;;;;;;;0.68;0.68;;;14.80;99.90;;;;;;4899926;29;20134;-76
2022/05/24 07:58:26;;;;;;;3.85;0.93;;;15.00;99.90;;;;;;4899324;29;20087;-76
2022/05/24 08:00:55;;;;;;;0.70;0.70;;;15.20;99.90;;;;;;4916245;29;20036;-76
2022/05/24 08:03:21;;;;;;;0.75;0.70;;;15.60;99.90;;;;;;4899759;29;20029;-76
2022/05/24 08:05:47;;;;;;;2.03;0.85;;;15.60;99.90;;;;;;4916678;29;20103;-76
2022/05/24 08:08:14;;;;;;;4.35;0.98;;;15.70;99.90;;;;;;4915612;29;20028;-76
2022/05/24 08:10:40;;;;;;;0.70;0.60;;;15.80;99.90;;;;;;4899900;29;20118;-76
2022/05/24 08:13:10;;;;;;;0.52;0.52;;;15.80;99.90;;;;;;4899375;29;20421;-75
2022/05/24 08:15:37;;;;;;;0.93;0.70;;;15.70;99.90;;;;;;4916365;29;20332;-76
2022/05/24 08:18:03;;;;;;;0.52;0.52;;;15.80;99.90;;;;;;4916348;29;20035;-76
2022/05/24 08:20:31;;;;;;;0.63;0.63;;;16.00;99.90;;;;;;4916622;29;20028;-76
2022/05/24 08:22:58;;;;;;;0.93;0.93;;;15.70;99.90;;;;;;4927461;23;20572;-81
2022/05/24 08:25:25;;;;;;;0.70;0.70;;;15.40;99.90;;;;;;4898539;29;20087;-82
2022/05/24 08:27:51;;;;;;;0.70;0.70;;;15.40;99.90;;;;;;4898317;29;20020;-81
2022/05/24 08:30:17;;;;;;;0.80;0.80;;;16.00;99.90;;;;;;4881759;29;20446;-82
2022/05/24 08:32:44;;;;;;;2.30;0.52;;;16.50;99.90;;;;;;4905508;29;20023;-82
2022/05/24 08:35:12;;;;;;;0.80;0.50;;;17.40;99.90;;;;;;4916196;29;20071;-82
2022/05/24 08:37:39;;;;;;;0.60;0.50;;;17.50;97.10;;;;;;4915812;29;20020;-79
2022/05/24 08:40:07;;;;;;;1.80;0.60;;;18.00;98.70;;;;;;4899034;29;20024;-79
2022/05/24 08:42:44;;;;;;;1.58;0.43;;;18.90;95.50;;;;;;4915773;29;20031;-79
2022/05/24 08:48:22;;;;;;;0.30;0.30;;;20.10;84.70;;;;;;4912986;29;20093;-79
2022/05/24 08:50:51;;;;;;;1.75;0.32;;;20.50;76.20;;;;;;4915848;29;20020;-79
2022/05/24 08:53:30;;;;;;;1.88;0.52;;;20.10;77.70;;;;;;4915740;29;20051;-80
2022/05/24 08:55:57;;;;;;;0.32;0.32;;;19.70;82.30;;;;;;4899260;29;20036;-79
2022/05/24 08:58:50;;;;;;;0.47;0.47;;;18.90;78.00;;;;;;4915470;29;20469;-79
2022/05/24 09:01:32;;;;;;;0.55;0.25;;;18.30;84.40;;;;;;4898755;29;20120;-79
2022/05/24 09:04:08;;;;;;;1.48;0.30;;;18.10;87.60;;;;;;4915836;29;20442;-79
2022/05/24 09:06:46;;;;;;;0.30;0.30;;;18.10;84.40;;;;;;4914888;29;20075;-78
2022/05/24 09:09:20;;;;;;;0.38;0.30;;;18.30;83.40;;;;;;4915260;29;20079;-79
2022/05/24 09:12:20;;;;;;;0.20;0.20;;;18.40;80.90;;;;;;4897792;29;20043;-79
2022/05/24 09:15:10;;;;;;;0.30;0.30;;;19.10;82.20;;;;;;4915371;29;20119;-79
2022/05/24 09:17:48;;;;;;;0.60;0.40;;;19.30;78.40;;;;;;4915286;29;20163;-79
2022/05/24 09:20:38;;;;;;;0.50;0.50;;;19.00;77.00;;;;;;4915325;29;20032;-79
2022/05/24 09:23:27;;;;;;;0.10;0.10;;;19.20;83.60;;;;;;4919342;23;20051;-76
2022/05/24 09:26:01;;;;;;;0.30;0.30;;;20.10;74.60;;;;;;4899410;29;20095;-75
2022/05/24 09:28:48;;;;;;;0.32;0.20;;;21.00;75.10;;;;;;4933607;29;20059;-76
2022/05/24 09:31:30;;;;;;;0.20;0.20;;;22.10;67.50;;;;;;4933648;29;20124;-76
2022/05/24 09:34:18;;;;;;;0.10;0.10;;;22.40;69.20;;;;;;4906078;29;20550;-77
2022/05/24 09:36:55;;;;;;;0.45;0.10;;;24.30;65.60;;;;;;4915530;29;20571;-77
2022/05/24 09:39:30;;;;;;;0.03;0.03;;;25.30;56.50;;;;;;4915140;29;20107;-76
2022/05/24 09:42:04;;;;;;;0.25;0.20;;;24.70;55.50;;;;;;4915340;29;20084;-77
2022/05/24 09:44:50;;;;;;;0.30;0.10;;;24.50;56.60;;;;;;4915433;29;20031;-76
2022/05/24 09:47:52;;;;;;;0.20;0.10;;;24.50;54.10;;;;;;4915606;29;20024;-76
2022/05/24 09:50:31;;;;;;;0.28;0.10;;;25.10;50.20;;;;;;4904556;29;20061;-76
2022/05/24 09:53:02;;;;;;;0.10;0.10;;;25.90;48.90;;;;;;4915196;29;20058;-77
2022/05/24 09:56:18;;;;;;;2.15;0.28;;;26.70;49.20;;;;;;4914087;29;20540;-76
2022/05/24 09:58:57;;;;;;;0.88;0.30;;;24.90;51.30;;;;;;4912097;29;20114;-76
2022/05/24 10:01:40;;;;;;;0.80;0.80;;;23.00;58.40;;;;;;4892253;29;20024;-76
2022/05/24 10:04:16;;;;;;;0.60;0.60;;;21.90;61.80;;;;;;4908595;29;20443;-76
2022/05/24 10:06:51;;;;;;;1.67;0.90;;;21.20;63.80;;;;;;4912581;29;20111;-76
2022/05/24 10:09:19;;;;;;;1.23;0.93;;;21.00;66.10;;;;;;4913745;29;20020;-76
2022/05/24 10:11:59;;;;;;;0.70;0.70;;;20.20;65.90;;;;;;4915427;29;20051;-75
2022/05/24 10:15:04;;;;;;;0.57;0.38;;;19.50;66.60;;;;;;4915050;29;20377;-76
2022/05/24 10:17:48;;;;;;;2.15;0.77;;;19.30;70.50;;;;;;4914703;29;20482;-75
2022/05/24 10:20:35;;;;;;;2.25;0.75;;;20.10;70.00;;;;;;4898251;29;20250;-76
2022/05/24 10:23:30;;;;;;;0.70;0.50;;;21.60;68.10;;;;;;4921808;23;20055;-80
2022/05/24 10:26:11;;;;;;;0.50;0.50;;;20.80;64.20;;;;;;4933062;29;20028;-81
2022/05/24 10:28:53;;;;;;;0.60;0.60;;;19.80;68.70;;;;;;4937358;29;20028;-81
2022/05/24 10:31:49;;;;;;;1.05;0.60;;;18.60;71.20;;;;;;4909162;29;20016;-81
2022/05/24 10:41:01;;;;;;;2.92;0.60;;;22.90;62.60;;;;;;4919088;29;20067;-81
2022/05/24 10:43:26;;;;;;;0.60;0.45;;;23.50;60.50;;;;;;4918920;29;20023;-81
2022/05/24 10:46:01;;;;;;;0.90;0.57;;;24.70;63.00;;;;;;4919112;29;20024;-79
2022/05/24 10:49:03;;;;;;;1.35;0.75;;;25.50;57.00;;;;;;4919250;29;20025;-79
2022/05/24 10:51:35;;;;;;;1.27;0.60;;;24.60;57.30;;;;;;4853844;29;20026;-78
2022/05/24 10:54:22;;;;;;;1.15;0.40;;;24.00;58.10;;;;;;4913277;29;20382;-79
2022/05/24 10:56:58;;;;;;;0.90;0.50;;;23.00;59.60;;;;;;4919110;29;20040;-79
2022/05/24 10:59:33;;;;;;;0.73;0.50;;;21.90;63.40;;;;;;4919057;29;20132;-79
2022/05/24 11:02:10;;;;;;;1.73;0.70;;;21.00;70.70;;;;;;4918815;29;20078;-80
2022/05/24 11:04:55;;;;;;;0.57;0.57;;;19.40;71.30;;;;;;4918902;29;20067;-80
2022/05/24 11:07:21;;;;;;;2.00;0.57;;;18.10;99.90;;;;;;4901693;29;20024;-81
2022/05/24 11:09:59;;;;;;;1.45;0.65;;;17.20;99.90;;;;;;4901856;29;20051;-80
2022/05/24 11:12:29;;;;;;;0.47;0.30;;;16.70;99.90;;;;;;4918627;29;20042;-79
2022/05/24 11:15:04;;;;;;;0.60;0.40;;;16.60;99.90;;;;;;4918697;29;20024;-79
2022/05/24 11:17:30;;;;;;;2.35;0.65;;;17.40;99.90;;;;;;4918803;29;20045;-79
2022/05/24 11:19:56;;;;;;;0.82;0.25;;;19.50;99.90;;;;;;4918364;29;20032;-80
2022/05/24 11:22:44;;;;;;;3.40;0.40;;;21.30;95.10;;;;;;4924623;23;20048;-77
2022/05/24 11:25:19;;;;;;;1.45;0.30;;;23.50;85.50;;;;;;4917648;29;20107;-78
2022/05/24 11:27:59;;;;;;;0.30;0.15;;;25.30;66.60;;;;;;4907922;29;20064;-78
2022/05/24 11:30:28;;;;;;;0.98;0.35;;;26.00;62.00;;;;;;4901365;29;20020;-77
2022/05/24 11:33:03;;;;;;;0.55;0.10;;;26.20;57.40;;;;;;4925242;29;20055;-77
2022/05/24 11:35:39;;;;;;;1.02;0.30;;;26.40;54.00;;;;;;4934841;29;20034;-76
2022/05/24 11:38:20;;;;;;;2.58;0.10;;;26.50;56.70;;;;;;4936136;29;20532;-77
2022/05/24 11:40:55;;;;;;;1.25;0.30;;;25.10;52.90;;;;;;4936334;29;20027;-76
2022/05/24 11:43:36;;;;;;;1.23;0.38;;;23.10;58.70;;;;;;4930168;29;20016;-76
2022/05/24 11:46:06;;;;;;;2.83;0.73;;;21.20;65.00;;;;;;4912765;29;20064;-76
2022/05/24 11:48:51;;;;;;;1.20;0.40;;;19.70;72.10;;;;;;4918438;29;20078;-75
2022/05/24 11:51:40;;;;;;;0.63;0.20;;;19.10;82.40;;;;;;4935779;29;20024;-76
2022/05/24 11:54:18;;;;;;;1.80;0.40;;;18.20;89.00;;;;;;4935293;29;20031;-76
2022/05/24 11:56:56;;;;;;;0.65;0.40;;;17.80;93.30;;;;;;4935565;29;20489;-78
2022/05/24 11:59:40;;;;;;;0.45;0.30;;;17.40;98.90;;;;;;4935584;29;20024;-77
2022/05/24 12:02:25;;;;;;;1.30;0.50;;;16.20;99.90;;;;;;4935155;29;20036;-77
2022/05/24 12:07:57;;;;;;;0.65;0.55;;;12.80;99.90;;;;;;4935114;29;20047;-76
2022/05/24 12:10:26;;;;;;;0.50;0.50;;;11.60;99.90;;;;;;4934772;29;20077;-77
2022/05/24 12:13:03;;;;;;;3.25;0.50;;;11.10;99.90;;;;;;4935118;29;20024;-79
2022/05/24 12:15:29;;;;;;;0.63;0.60;;;10.80;99.90;;;;;;4918098;29;20385;-78
2022/05/24 12:17:58;;;;;;;1.65;0.90;;;10.70;99.90;;;;;;4935688;29;20028;-77
2022/05/24 12:20:32;;;;;;;1.75;1.15;;;10.60;99.90;;;;;;4935381;29;20067;-77
2022/05/24 12:23:28;;;;;;;1.55;1.05;;;10.60;99.90;;;;;;4932447;23;20048;-85
2022/05/24 12:26:04;;;;;;;1.00;0.73;;;10.60;99.90;;;;;;4883958;29;20107;-86
2022/05/24 12:28:33;;;;;;;2.60;1.10;;;10.50;99.90;;;;;;4898450;29;20031;-86
2022/05/24 12:31:00;;;;;;;0.98;0.77;;;10.60;99.90;;;;;;4898586;29;20513;-86
2022/05/24 12:33:33;;;;;;;1.65;1.17;;;10.70;99.90;;;;;;4909042;29;20103;-83
2022/05/24 12:36:23;;;;;;;3.42;1.00;;;10.80;99.90;;;;;;4916134;29;20032;-83
2022/05/24 12:38:59;;;;;;;2.35;0.75;;;11.00;99.90;;;;;;4909870;29;20047;-83
2022/05/24 12:41:55;;;;;;;1.60;0.95;;;11.00;99.90;;;;;;4915659;29;20012;-83
2022/05/24 12:44:47;;;;;;;1.10;0.90;;;11.20;99.90;;;;;;4909475;29;20067;-83
2022/05/24 12:47:17;;;;;;;2.85;1.00;;;11.30;99.90;;;;;;4910434;29;20067;-82
2022/05/24 12:49:48;;;;;;;2.38;1.08;;;11.40;99.90;;;;;;4899210;29;20055;-82
2022/05/24 12:52:18;;;;;;;1.15;0.90;;;11.50;99.90;;;;;;4915407;29;20028;-82
2022/05/24 12:54:52;;;;;;;1.50;1.17;;;11.50;99.90;;;;;;4915279;29;20088;-82
2022/05/24 12:57:22;;;;;;;1.30;0.80;;;11.50;99.90;;;;;;4915895;29;20477;-82
2022/05/24 13:00:00;;;;;;;1.27;1.05;;;11.60;99.90;;;;;;4899056;29;20063;-82
2022/05/24 13:02:34;;;;;;;1.13;0.90;;;11.60;99.90;;;;;;4909071;29;20386;-82
2022/05/24 13:05:18;;;;;;;2.67;1.17;;;11.50;99.90;;;;;;4915519;29;20020;-82
2022/05/24 13:07:51;;;;;;;1.05;0.95;;;11.30;99.90;;;;;;4914629;29;20076;-83
2022/05/24 13:10:23;;;;;;;1.38;0.77;;;11.30;99.90;;;;;;4915511;29;20060;-84
2022/05/24 13:12:55;;;;;;;1.25;0.98;;;11.20;99.90;;;;;;4915234;29;20020;-82
2022/05/24 13:15:46;;;;;;;1.10;1.10;;;11.10;99.90;;;;;;4915784;29;20040;-85
2022/05/24 13:18:15;;;;;;;1.60;0.80;;;11.10;99.90;;;;;;4902621;29;20060;-84
2022/05/24 13:20:52;;;;;;;2.38;1.20;;;11.30;99.90;;;;;;4915527;29;20067;-83
2022/05/24 13:23:19;;;;;;;2.40;1.00;;;11.30;99.90;;;;;;4933983;23;20068;-76
2022/05/24 13:25:45;;;;;;;0.98;0.98;;;11.50;99.90;;;;;;4902949;29;20123;-76
2022/05/24 13:28:12;;;;;;;2.08;0.85;;;11.70;99.90;;;;;;4880619;29;20032;-77
2022/05/24 13:33:33;;;;;;;2.28;1.05;;;12.60;99.90;;;;;;4907437;29;20050;-77
2022/05/24 13:36:01;;;;;;;3.35;1.17;;;13.00;99.90;;;;;;4898065;29;20043;-77
2022/05/24 13:38:28;;;;;;;3.10;1.10;;;13.10;99.90;;;;;;4914957;29;20040;-77
2022/05/24 13:40:58;;;;;;;2.92;0.90;;;13.50;99.90;;;;;;4915272;29;20038;-76
2022/05/24 13:43:38;;;;;;;5.22;0.93;;;13.80;99.90;;;;;;4915309;29;20032;-76
2022/05/24 13:46:16;;;;;;;4.15;1.05;;;13.90;99.90;;;;;;4908904;29;20468;-77
2022/05/24 13:48:52;;;;;;;1.23;1.00;;;13.80;99.90;;;;;;4914586;29;20031;-77
2022/05/24 13:51:25;;;;;;;0.50;0.50;;;13.60;99.90;;;;;;4897823;29;20402;-77
2022/05/24 13:53:51;;;;;;;0.68;0.68;;;13.50;99.90;;;;;;4914211;29;20035;-77
2022/05/24 13:56:21;;;;;;;2.63;0.60;;;13.40;99.90;;;;;;4897619;29;20040;-77
2022/05/24 13:59:01;;;;;;;3.22;0.63;;;13.40;99.90;;;;;;4890744;29;20039;-76
2022/05/24 14:01:32;;;;;;;2.20;1.13;;;13.30;99.90;;;;;;4897758;29;20031;-76